sensor_id;sensor_type;location;lat;lon;timestamp;temperature;humidity
11254;DHT22;5684;50.920;6.358;2023-03-14T09:10:44;18.20;71.30
11254;DHT22;5684;50.920;6.358;2023-03-14T09:14:16;18.30;71.70
11254;DHT22;5684;50.920;6.358;2023-03-14T09:17:53;18.10;71.20
11254;DHT22;5684;50.920;6.358;2023-03-14T09:20:19;18.10;70.10
11254;DHT22;5684;50.920;6.358;2023-03-14T09:22:44;18.00;71.50
11254;DHT22;5684;50.920;6.358;2023-03-14T09:25:10;19.10;72.80
11254;DHT22;5684;50.920;6.358;2023-03-14T09:28:35;17.90;71.00
11254;DHT22;5684;50.920;6.358;2023-03-14T09:32:08;18.10;71.00
11254;DHT22;5684;50.920;6.358;2023-03-14T09:34:33;17.90;70.10
11254;DHT22;5684;50.920;6.358;2023-03-14T09:36:59;18.40;72.10
11254;DHT22;5684;50.920;6.358;2023-03-14T09:39:25;17.80;71.70
11254;DHT22;5684;50.920;6.358;2023-03-14T09:41:51;18.40;71.90
11254;DHT22;5684;50.920;6.358;2023-03-14T09:44:20;18.00;71.70
11254;DHT22;5684;50.920;6.358;2023-03-14T09:46:47;18.10;71.70
11254;DHT22;5684;50.920;6.358;2023-03-14T09:49:28;17.50;70.80
11254;DHT22;5684;50.920;6.358;2023-03-14T09:51:55;17.70;68.80
11254;DHT22;5684;50.920;6.358;2023-03-14T09:56:55;18.20;69.10
11254;DHT22;5684;50.920;6.358;2023-03-14T09:59:21;18.50;71.90
11254;DHT22;5684;50.920;6.358;2023-03-14T10:01:46;18.80;72.20
11254;DHT22;5684;50.920;6.358;2023-03-14T10:04:13;18.30;71.90
11254;DHT22;5684;50.920;6.358;2023-03-14T10:06:39;18.10;71.20
11254;DHT22;5684;50.920;6.358;2023-03-14T10:09:05;17.90;71.70
11254;DHT22;5684;50.920;6.358;2023-03-14T10:11:31;18.30;71.80
11254;DHT22;5684;50.920;6.358;2023-03-14T18:28:24;18.50;70.60
11254;DHT22;5684;50.920;6.358;2023-03-14T21:13:07;18.60;70.60
11254;DHT22;5684;50.920;6.358;2023-03-14T21:20:17;18.40;70.40
11254;DHT22;5684;50.920;6.358;2023-03-14T21:22:43;18.50;70.70
11254;DHT22;5684;50.920;6.358;2023-03-14T21:25:08;18.20;70.30
11254;DHT22;5684;50.920;6.358;2023-03-14T21:27:36;18.40;70.50
11254;DHT22;5684;50.920;6.358;2023-03-14T21:30:02;18.30;70.50
11254;DHT22;5684;50.920;6.358;2023-03-14T21:32:27;18.50;70.50
11254;DHT22;5684;50.920;6.358;2023-03-14T21:34:53;18.00;70.50
11254;DHT22;5684;50.920;6.358;2023-03-14T21:37:18;18.30;70.50
11254;DHT22;5684;50.920;6.358;2023-03-14T21:39:44;18.30;70.40
11254;DHT22;5684;50.920;6.358;2023-03-14T21:42:09;18.00;70.30
11254;DHT22;5684;50.920;6.358;2023-03-14T21:44:35;18.10;68.70
11254;DHT22;5684;50.920;6.358;2023-03-14T21:47:05;18.30;69.90
11254;DHT22;5684;50.920;6.358;2023-03-14T21:49:31;18.00;70.20
11254;DHT22;5684;50.920;6.358;2023-03-14T21:52:05;18.30;69.30
11254;DHT22;5684;50.920;6.358;2023-03-14T21:54:31;18.10;67.10
11254;DHT22;5684;50.920;6.358;2023-03-14T21:57:00;18.40;68.50
11254;DHT22;5684;50.920;6.358;2023-03-14T21:59:26;18.20;69.90
11254;DHT22;5684;50.920;6.358;2023-03-14T22:01:52;18.10;69.90
11254;DHT22;5684;50.920;6.358;2023-03-14T22:04:18;18.10;69.80
11254;DHT22;5684;50.920;6.358;2023-03-14T22:06:43;18.10;69.70
11254;DHT22;5684;50.920;6.358;2023-03-14T22:09:09;18.30;70.00
11254;DHT22;5684;50.920;6.358;2023-03-14T22:11:34;18.20;70.00
11254;DHT22;5684;50.920;6.358;2023-03-14T22:14:00;18.50;69.80
11254;DHT22;5684;50.920;6.358;2023-03-14T22:16:25;18.30;70.00
